createdAt,value
2024-05-09T00:01:33.663Z,7.26
2024-05-09T00:06:36.420Z,7.33
2024-05-09T00:11:41.571Z,7.53
2024-05-09T00:16:44.265Z,7.76
2024-05-09T00:21:46.927Z,7.90
2024-05-09T00:26:52.200Z,8.00
2024-05-09T00:31:55.054Z,8.03
2024-05-09T00:36:57.734Z,8.23
2024-05-09T00:42:03.115Z,8.37
2024-05-09T00:47:06.742Z,8.44
2024-05-09T00:52:10.747Z,8.52
2024-05-09T00:57:17.527Z,8.53
2024-05-09T01:02:21.599Z,8.70
2024-05-09T01:07:25.011Z,8.73
2024-05-09T01:12:30.495Z,8.95
2024-05-09T01:17:33.460Z,8.84
2024-05-09T01:22:37.349Z,8.94
2024-05-09T01:27:42.515Z,8.90
2024-05-09T01:32:45.280Z,8.86
2024-05-09T01:37:48.114Z,8.91
2024-05-09T01:42:53.622Z,8.89
2024-05-09T01:47:56.579Z,8.91
2024-05-09T01:52:59.572Z,8.98
2024-05-09T01:58:05.672Z,8.91
2024-05-09T02:03:09.056Z,9.11
2024-05-09T02:08:13.948Z,8.98
2024-05-09T02:13:19.556Z,8.99
2024-05-09T02:18:22.553Z,8.80
2024-05-09T02:23:25.356Z,8.53
2024-05-09T02:28:30.650Z,8.30
2024-05-09T02:33:33.695Z,7.92
2024-05-09T02:38:37.143Z,7.65
2024-05-09T02:43:43.483Z,7.55
2024-05-09T02:48:46.273Z,7.10
2024-05-09T02:53:48.956Z,7.10
2024-05-09T02:58:54.690Z,6.93
2024-05-09T03:03:57.479Z,6.68
2024-05-09T03:09:00.707Z,6.42
2024-05-09T03:14:06.276Z,6.31
2024-05-09T03:19:09.047Z,6.12
2024-05-09T03:24:12.349Z,6.12
2024-05-09T03:29:17.908Z,6.01
2024-05-09T03:34:20.701Z,5.96
2024-05-09T03:39:23.204Z,5.99
2024-05-09T03:44:28.539Z,6.05
2024-05-09T03:49:31.527Z,6.17
2024-05-09T03:54:35.649Z,6.31
2024-05-09T03:59:41.415Z,6.32
2024-05-09T04:04:43.904Z,6.30
2024-05-09T04:09:46.398Z,6.34
2024-05-09T04:14:51.659Z,6.37
2024-05-09T04:19:54.374Z,6.42
2024-05-09T04:24:57.029Z,6.57
2024-05-09T04:30:03.582Z,6.91
2024-05-09T04:35:06.447Z,8.29
2024-05-09T04:40:20.499Z,11.49
2024-05-09T04:45:29.785Z,13.70
2024-05-09T04:50:38.242Z,14.82
2024-05-09T04:55:42.283Z,16.21
2024-05-09T05:00:47.965Z,17.74
2024-05-09T05:05:50.562Z,18.20
2024-05-09T05:10:53.401Z,18.81
2024-05-09T05:15:59.062Z,20.72
2024-05-09T05:21:01.560Z,19.38
2024-05-09T05:26:05.450Z,19.45
2024-05-09T05:31:10.586Z,20.95
2024-05-09T05:36:13.328Z,17.32
2024-05-09T05:41:16.003Z,21.39
2024-05-09T05:46:21.112Z,21.87
2024-05-09T05:51:24.058Z,20.57
2024-05-09T05:56:27.010Z,20.89
2024-05-09T06:01:32.448Z,20.75
2024-05-09T06:06:34.956Z,21.34
2024-05-09T06:11:40.451Z,22.18
2024-05-09T06:16:45.957Z,19.48
2024-05-09T06:21:48.443Z,23.45
2024-05-09T06:26:51.135Z,20.25
2024-05-09T06:31:58.572Z,17.72
2024-05-09T06:37:02.857Z,18.68
2024-05-09T06:42:05.406Z,18.33
2024-05-09T06:47:10.770Z,20.15
2024-05-09T06:52:13.295Z,17.67
2024-05-09T06:57:17.550Z,20.33
2024-05-09T07:02:23.231Z,21.63
2024-05-09T07:07:26.159Z,21.37
2024-05-09T07:12:29.261Z,24.08
2024-05-09T07:17:34.524Z,21.58
2024-05-09T07:22:37.151Z,21.51
2024-05-09T07:27:39.583Z,22.20
2024-05-09T07:32:44.929Z,23.39
2024-05-09T07:37:48.066Z,20.95
2024-05-09T07:42:50.785Z,20.40
2024-05-09T07:49:44.145Z,21.64
2024-05-09T07:53:38.200Z,19.77
2024-05-09T07:58:40.764Z,18.88
2024-05-09T08:03:46.648Z,20.54
2024-05-09T08:08:49.548Z,19.78
2024-05-09T08:13:52.291Z,23.40
2024-05-09T08:18:57.957Z,19.73
2024-05-09T08:24:00.623Z,21.16
2024-05-09T08:29:03.148Z,22.24
2024-05-09T08:34:08.761Z,20.63
2024-05-09T08:39:11.255Z,20.46
2024-05-09T08:44:14.303Z,22.81
2024-05-09T08:49:19.886Z,22.59
2024-05-09T08:54:22.442Z,20.14
2024-05-09T08:59:31.622Z,21.44
2024-05-09T09:04:40.950Z,22.35
2024-05-09T09:09:46.022Z,23.06
2024-05-09T09:14:48.557Z,22.73
2024-05-09T09:19:53.993Z,23.20
2024-05-09T09:24:56.509Z,23.49
2024-05-09T09:29:59.142Z,23.67
2024-05-09T09:35:04.942Z,24.51
2024-05-09T09:40:13.306Z,22.43
2024-05-09T09:45:16.792Z,24.38
2024-05-09T09:50:31.330Z,25.68
2024-05-09T10:00:40.558Z,26.11
2024-05-09T10:05:47.442Z,25.63
2024-05-09T10:10:50.769Z,23.91
2024-05-09T10:15:54.746Z,24.40
2024-05-09T10:21:00.346Z,25.16
2024-05-09T10:26:05.826Z,26.64
2024-05-09T10:31:10.294Z,23.49
